sensor_id;sensor_type;location;lat;lon;timestamp;P1;durP1;ratioP1;P2;durP2;ratioP2
4414;SDS011;2220;42.670;23.398;2024-02-23T00:00:50;25.70;;;13.07;;
4414;SDS011;2220;42.670;23.398;2024-02-23T00:03:15;31.65;;;15.32;;
4414;SDS011;2220;42.670;23.398;2024-02-23T00:05:41;29.50;;;15.02;;
4414;SDS011;2220;42.670;23.398;2024-02-23T00:08:06;31.80;;;14.45;;
4414;SDS011;2220;42.670;23.398;2024-02-23T00:10:32;27.52;;;14.05;;
4414;SDS011;2220;42.670;23.398;2024-02-23T00:12:58;27.48;;;14.70;;
4414;SDS011;2220;42.670;23.398;2024-02-23T00:15:23;30.38;;;14.90;;
4414;SDS011;2220;42.670;23.398;2024-02-23T00:17:50;31.80;;;15.23;;
4414;SDS011;2220;42.670;23.398;2024-02-23T00:20:15;28.30;;;14.20;;
4414;SDS011;2220;42.670;23.398;2024-02-23T00:22:41;25.95;;;13.50;;
4414;SDS011;2220;42.670;23.398;2024-02-23T00:25:06;27.17;;;13.80;;
4414;SDS011;2220;42.670;23.398;2024-02-23T00:27:34;27.33;;;14.68;;
4414;SDS011;2220;42.670;23.398;2024-02-23T00:30:00;24.83;;;14.60;;
4414;SDS011;2220;42.670;23.398;2024-02-23T00:32:25;26.73;;;14.93;;
4414;SDS011;2220;42.670;23.398;2024-02-23T00:34:50;28.85;;;14.95;;
4414;SDS011;2220;42.670;23.398;2024-02-23T00:37:16;27.58;;;14.60;;
4414;SDS011;2220;42.670;23.398;2024-02-23T00:39:41;26.88;;;14.75;;
4414;SDS011;2220;42.670;23.398;2024-02-23T00:42:07;27.63;;;13.63;;
4414;SDS011;2220;42.670;23.398;2024-02-23T00:44:32;23.90;;;13.23;;
4414;SDS011;2220;42.670;23.398;2024-02-23T00:46:58;22.83;;;13.07;;
4414;SDS011;2220;42.670;23.398;2024-02-23T00:49:26;23.15;;;12.80;;
4414;SDS011;2220;42.670;23.398;2024-02-23T00:51:52;19.75;;;10.90;;
4414;SDS011;2220;42.670;23.398;2024-02-23T00:54:17;15.68;;;9.77;;
4414;SDS011;2220;42.670;23.398;2024-02-23T00:56:42;17.55;;;8.18;;
4414;SDS011;2220;42.670;23.398;2024-02-23T00:59:08;16.10;;;9.48;;
4414;SDS011;2220;42.670;23.398;2024-02-23T01:01:33;13.80;;;8.77;;
4414;SDS011;2220;42.670;23.398;2024-02-23T01:03:59;16.10;;;9.55;;
4414;SDS011;2220;42.670;23.398;2024-02-23T01:06:24;17.75;;;10.23;;
4414;SDS011;2220;42.670;23.398;2024-02-23T01:08:50;17.17;;;10.60;;
4414;SDS011;2220;42.670;23.398;2024-02-23T01:11:16;21.00;;;11.07;;
4414;SDS011;2220;42.670;23.398;2024-02-23T01:13:41;20.77;;;10.23;;
4414;SDS011;2220;42.670;23.398;2024-02-23T01:16:06;19.73;;;11.23;;
4414;SDS011;2220;42.670;23.398;2024-02-23T01:18:33;18.92;;;10.88;;
4414;SDS011;2220;42.670;23.398;2024-02-23T01:20:58;16.23;;;10.25;;
4414;SDS011;2220;42.670;23.398;2024-02-23T01:23:24;20.45;;;10.80;;
4414;SDS011;2220;42.670;23.398;2024-02-23T01:25:49;23.25;;;11.18;;
4414;SDS011;2220;42.670;23.398;2024-02-23T01:28:15;21.05;;;10.73;;
4414;SDS011;2220;42.670;23.398;2024-02-23T01:30:40;22.63;;;11.93;;
4414;SDS011;2220;42.670;23.398;2024-02-23T01:33:05;17.92;;;9.63;;
4414;SDS011;2220;42.670;23.398;2024-02-23T01:35:31;16.35;;;10.50;;
4414;SDS011;2220;42.670;23.398;2024-02-23T01:37:56;18.13;;;10.75;;
4414;SDS011;2220;42.670;23.398;2024-02-23T01:40:22;21.83;;;11.52;;
4414;SDS011;2220;42.670;23.398;2024-02-23T01:42:47;21.17;;;11.25;;
4414;SDS011;2220;42.670;23.398;2024-02-23T01:45:12;17.00;;;10.60;;
4414;SDS011;2220;42.670;23.398;2024-02-23T01:47:38;24.75;;;12.35;;
4414;SDS011;2220;42.670;23.398;2024-02-23T01:50:03;22.42;;;11.85;;
4414;SDS011;2220;42.670;23.398;2024-02-23T01:52:30;20.73;;;12.02;;
4414;SDS011;2220;42.670;23.398;2024-02-23T01:54:56;22.05;;;11.73;;
4414;SDS011;2220;42.670;23.398;2024-02-23T01:57:22;20.30;;;12.57;;
4414;SDS011;2220;42.670;23.398;2024-02-23T01:59:48;26.80;;;13.13;;
4414;SDS011;2220;42.670;23.398;2024-02-23T02:02:15;18.80;;;12.20;;
4414;SDS011;2220;42.670;23.398;2024-02-23T02:04:40;28.13;;;14.45;;
4414;SDS011;2220;42.670;23.398;2024-02-23T02:07:06;23.13;;;13.10;;
4414;SDS011;2220;42.670;23.398;2024-02-23T02:09:31;22.35;;;12.50;;
4414;SDS011;2220;42.670;23.398;2024-02-23T02:11:57;23.55;;;11.93;;
4414;SDS011;2220;42.670;23.398;2024-02-23T02:14:22;26.88;;;12.93;;
4414;SDS011;2220;42.670;23.398;2024-02-23T02:16:48;22.10;;;12.73;;
4414;SDS011;2220;42.670;23.398;2024-02-23T02:19:13;27.05;;;14.25;;
4414;SDS011;2220;42.670;23.398;2024-02-23T02:21:39;25.45;;;15.32;;
4414;SDS011;2220;42.670;23.398;2024-02-23T02:24:06;31.15;;;16.73;;
4414;SDS011;2220;42.670;23.398;2024-02-23T02:26:31;27.80;;;15.60;;
4414;SDS011;2220;42.670;23.398;2024-02-23T02:28:57;29.15;;;14.95;;
4414;SDS011;2220;42.670;23.398;2024-02-23T02:31:22;28.33;;;14.80;;
4414;SDS011;2220;42.670;23.398;2024-02-23T02:33:48;24.63;;;13.35;;
4414;SDS011;2220;42.670;23.398;2024-02-23T02:36:14;29.27;;;14.45;;
4414;SDS011;2220;42.670;23.398;2024-02-23T02:38:39;24.25;;;14.30;;
4414;SDS011;2220;42.670;23.398;2024-02-23T02:41:04;25.02;;;13.77;;
4414;SDS011;2220;42.670;23.398;2024-02-23T02:43:30;26.17;;;13.48;;
4414;SDS011;2220;42.670;23.398;2024-02-23T02:45:56;22.77;;;14.00;;
4414;SDS011;2220;42.670;23.398;2024-02-23T02:48:22;27.30;;;14.13;;
4414;SDS011;2220;42.670;23.398;2024-02-23T02:50:48;29.13;;;14.93;;
4414;SDS011;2220;42.670;23.398;2024-02-23T02:53:14;23.30;;;14.48;;
4414;SDS011;2220;42.670;23.398;2024-02-23T02:55:41;24.40;;;12.90;;
4414;SDS011;2220;42.670;23.398;2024-02-23T02:58:07;30.70;;;14.23;;
4414;SDS011;2220;42.670;23.398;2024-02-23T03:00:33;22.80;;;13.60;;
4414;SDS011;2220;42.670;23.398;2024-02-23T03:02:58;22.63;;;13.43;;
4414;SDS011;2220;42.670;23.398;2024-02-23T03:05:24;26.42;;;13.05;;
4414;SDS011;2220;42.670;23.398;2024-02-23T03:07:49;29.35;;;14.82;;
4414;SDS011;2220;42.670;23.398;2024-02-23T03:10:15;19.65;;;11.73;;
4414;SDS011;2220;42.670;23.398;2024-02-23T03:12:40;23.52;;;11.10;;
4414;SDS011;2220;42.670;23.398;2024-02-23T03:15:06;21.83;;;11.18;;
4414;SDS011;2220;42.670;23.398;2024-02-23T03:17:32;18.40;;;11.05;;
4414;SDS011;2220;42.670;23.398;2024-02-23T03:19:58;18.45;;;10.35;;
4414;SDS011;2220;42.670;23.398;2024-02-23T03:22:23;20.35;;;10.02;;
4414;SDS011;2220;42.670;23.398;2024-02-23T03:24:49;16.98;;;10.35;;
4414;SDS011;2220;42.670;23.398;2024-02-23T03:27:14;18.63;;;11.20;;
4414;SDS011;2220;42.670;23.398;2024-02-23T03:29:39;18.88;;;11.10;;
4414;SDS011;2220;42.670;23.398;2024-02-23T03:32:05;18.88;;;11.15;;
4414;SDS011;2220;42.670;23.398;2024-02-23T03:34:31;18.52;;;10.27;;
4414;SDS011;2220;42.670;23.398;2024-02-23T03:36:56;19.80;;;11.18;;
4414;SDS011;2220;42.670;23.398;2024-02-23T03:39:23;17.92;;;10.43;;
4414;SDS011;2220;42.670;23.398;2024-02-23T03:41:49;16.35;;;9.02;;
4414;SDS011;2220;42.670;23.398;2024-02-23T03:44:15;14.98;;;9.40;;
4414;SDS011;2220;42.670;23.398;2024-02-23T03:46:40;18.70;;;9.90;;
4414;SDS011;2220;42.670;23.398;2024-02-23T03:49:05;17.90;;;10.07;;
4414;SDS011;2220;42.670;23.398;2024-02-23T03:51:31;18.58;;;10.43;;
4414;SDS011;2220;42.670;23.398;2024-02-23T03:53:58;18.95;;;10.52;;
4414;SDS011;2220;42.670;23.398;2024-02-23T03:56:24;17.20;;;10.50;;
4414;SDS011;2220;42.670;23.398;2024-02-23T03:58:49;17.15;;;9.48;;
4414;SDS011;2220;42.670;23.398;2024-02-23T04:01:15;18.33;;;10.25;;
4414;SDS011;2220;42.670;23.398;2024-02-23T04:03:40;16.50;;;9.60;;
4414;SDS011;2220;42.670;23.398;2024-02-23T04:06:06;16.98;;;9.88;;
4414;SDS011;2220;42.670;23.398;2024-02-23T04:08:32;13.93;;;9.32;;
4414;SDS011;2220;42.670;23.398;2024-02-23T04:10:58;14.43;;;10.10;;
4414;SDS011;2220;42.670;23.398;2024-02-23T04:13:23;13.10;;;9.40;;
4414;SDS011;2220;42.670;23.398;2024-02-23T04:15:49;17.13;;;9.80;;
4414;SDS011;2220;42.670;23.398;2024-02-23T04:18:14;16.17;;;9.60;;
4414;SDS011;2220;42.670;23.398;2024-02-23T04:20:40;14.65;;;9.32;;
4414;SDS011;2220;42.670;23.398;2024-02-23T04:23:06;17.17;;;10.70;;
4414;SDS011;2220;42.670;23.398;2024-02-23T04:25:31;16.85;;;10.68;;
4414;SDS011;2220;42.670;23.398;2024-02-23T04:27:57;14.20;;;8.80;;
4414;SDS011;2220;42.670;23.398;2024-02-23T04:30:22;15.10;;;9.30;;
4414;SDS011;2220;42.670;23.398;2024-02-23T04:32:48;13.60;;;9.55;;
4414;SDS011;2220;42.670;23.398;2024-02-23T04:35:13;20.42;;;9.48;;
4414;SDS011;2220;42.670;23.398;2024-02-23T04:37:39;15.63;;;9.30;;
4414;SDS011;2220;42.670;23.398;2024-02-23T04:40:05;14.70;;;9.10;;
4414;SDS011;2220;42.670;23.398;2024-02-23T04:42:30;16.83;;;9.70;;
4414;SDS011;2220;42.670;23.398;2024-02-23T04:44:56;18.48;;;9.70;;
4414;SDS011;2220;42.670;23.398;2024-02-23T04:47:21;19.90;;;10.85;;
4414;SDS011;2220;42.670;23.398;2024-02-23T04:49:47;14.05;;;9.25;;
4414;SDS011;2220;42.670;23.398;2024-02-23T04:52:12;17.02;;;11.00;;
4414;SDS011;2220;42.670;23.398;2024-02-23T04:54:38;19.42;;;11.27;;
4414;SDS011;2220;42.670;23.398;2024-02-23T04:57:03;14.85;;;9.88;;
4414;SDS011;2220;42.670;23.398;2024-02-23T04:59:29;18.77;;;11.10;;
4414;SDS011;2220;42.670;23.398;2024-02-23T05:01:56;17.02;;;10.70;;
4414;SDS011;2220;42.670;23.398;2024-02-23T05:04:22;17.23;;;9.52;;
4414;SDS011;2220;42.670;23.398;2024-02-23T05:06:47;17.13;;;10.05;;
4414;SDS011;2220;42.670;23.398;2024-02-23T05:09:12;29.50;;;15.82;;
4414;SDS011;2220;42.670;23.398;2024-02-23T05:11:38;25.48;;;11.52;;
4414;SDS011;2220;42.670;23.398;2024-02-23T05:14:04;20.48;;;11.25;;
4414;SDS011;2220;42.670;23.398;2024-02-23T05:16:29;21.33;;;11.32;;
4414;SDS011;2220;42.670;23.398;2024-02-23T05:18:54;19.55;;;10.93;;
4414;SDS011;2220;42.670;23.398;2024-02-23T05:21:20;20.60;;;12.05;;
4414;SDS011;2220;42.670;23.398;2024-02-23T05:23:45;32.97;;;14.23;;
4414;SDS011;2220;42.670;23.398;2024-02-23T05:26:11;27.75;;;16.15;;
4414;SDS011;2220;42.670;23.398;2024-02-23T05:28:37;34.47;;;16.52;;
4414;SDS011;2220;42.670;23.398;2024-02-23T05:31:03;32.35;;;16.02;;
4414;SDS011;2220;42.670;23.398;2024-02-23T05:33:31;37.28;;;19.00;;
4414;SDS011;2220;42.670;23.398;2024-02-23T05:35:56;39.17;;;18.90;;
4414;SDS011;2220;42.670;23.398;2024-02-23T05:38:22;33.42;;;18.83;;
4414;SDS011;2220;42.670;23.398;2024-02-23T05:40:47;34.17;;;16.52;;
4414;SDS011;2220;42.670;23.398;2024-02-23T05:43:13;62.80;;;28.73;;
4414;SDS011;2220;42.670;23.398;2024-02-23T05:45:39;40.00;;;21.50;;
4414;SDS011;2220;42.670;23.398;2024-02-23T05:48:04;41.08;;;18.73;;
4414;SDS011;2220;42.670;23.398;2024-02-23T05:50:30;34.30;;;18.15;;
4414;SDS011;2220;42.670;23.398;2024-02-23T05:52:56;36.00;;;17.85;;
4414;SDS011;2220;42.670;23.398;2024-02-23T05:55:21;81.15;;;37.85;;
4414;SDS011;2220;42.670;23.398;2024-02-23T05:57:47;33.35;;;18.77;;
4414;SDS011;2220;42.670;23.398;2024-02-23T06:00:12;24.80;;;15.13;;
4414;SDS011;2220;42.670;23.398;2024-02-23T06:02:40;36.28;;;16.33;;
4414;SDS011;2220;42.670;23.398;2024-02-23T06:05:06;47.90;;;22.50;;
4414;SDS011;2220;42.670;23.398;2024-02-23T06:07:32;29.02;;;16.15;;
4414;SDS011;2220;42.670;23.398;2024-02-23T06:09:59;30.63;;;16.58;;
4414;SDS011;2220;42.670;23.398;2024-02-23T06:12:25;35.30;;;16.17;;
4414;SDS011;2220;42.670;23.398;2024-02-23T06:14:52;86.72;;;42.67;;
4414;SDS011;2220;42.670;23.398;2024-02-23T06:17:17;31.92;;;15.60;;
4414;SDS011;2220;42.670;23.398;2024-02-23T06:19:43;34.35;;;16.58;;
4414;SDS011;2220;42.670;23.398;2024-02-23T06:22:08;36.42;;;16.45;;
4414;SDS011;2220;42.670;23.398;2024-02-23T06:24:35;30.27;;;15.93;;
4414;SDS011;2220;42.670;23.398;2024-02-23T06:27:01;49.83;;;25.10;;
4414;SDS011;2220;42.670;23.398;2024-02-23T06:29:28;39.97;;;18.10;;
4414;SDS011;2220;42.670;23.398;2024-02-23T06:31:55;41.95;;;22.05;;
4414;SDS011;2220;42.670;23.398;2024-02-23T06:34:20;35.00;;;18.40;;
4414;SDS011;2220;42.670;23.398;2024-02-23T06:36:46;85.18;;;38.17;;
4414;SDS011;2220;42.670;23.398;2024-02-23T06:39:11;55.63;;;19.35;;
4414;SDS011;2220;42.670;23.398;2024-02-23T06:41:37;40.08;;;17.55;;
4414;SDS011;2220;42.670;23.398;2024-02-23T06:44:06;37.38;;;18.85;;
4414;SDS011;2220;42.670;23.398;2024-02-23T06:46:31;40.13;;;20.52;;
4414;SDS011;2220;42.670;23.398;2024-02-23T06:48:57;37.22;;;18.23;;
4414;SDS011;2220;42.670;23.398;2024-02-23T06:51:22;49.08;;;23.17;;
4414;SDS011;2220;42.670;23.398;2024-02-23T06:53:48;46.40;;;20.52;;
4414;SDS011;2220;42.670;23.398;2024-02-23T06:56:13;42.70;;;20.08;;
4414;SDS011;2220;42.670;23.398;2024-02-23T06:58:39;40.75;;;19.50;;
4414;SDS011;2220;42.670;23.398;2024-02-23T07:01:04;44.33;;;20.73;;
4414;SDS011;2220;42.670;23.398;2024-02-23T07:03:36;41.88;;;20.75;;
4414;SDS011;2220;42.670;23.398;2024-02-23T07:06:02;42.63;;;21.45;;
4414;SDS011;2220;42.670;23.398;2024-02-23T07:08:28;42.42;;;21.77;;
4414;SDS011;2220;42.670;23.398;2024-02-23T07:10:53;65.45;;;25.90;;
4414;SDS011;2220;42.670;23.398;2024-02-23T07:13:19;41.95;;;21.58;;
4414;SDS011;2220;42.670;23.398;2024-02-23T07:15:44;42.75;;;20.25;;
4414;SDS011;2220;42.670;23.398;2024-02-23T07:18:10;52.05;;;25.15;;
4414;SDS011;2220;42.670;23.398;2024-02-23T07:20:36;40.35;;;21.85;;
4414;SDS011;2220;42.670;23.398;2024-02-23T07:23:01;43.88;;;22.10;;
4414;SDS011;2220;42.670;23.398;2024-02-23T07:25:27;56.90;;;23.00;;
4414;SDS011;2220;42.670;23.398;2024-02-23T07:27:52;37.88;;;17.73;;
4414;SDS011;2220;42.670;23.398;2024-02-23T07:30:18;34.35;;;17.25;;
4414;SDS011;2220;42.670;23.398;2024-02-23T07:32:43;42.60;;;21.42;;
4414;SDS011;2220;42.670;23.398;2024-02-23T07:35:09;57.17;;;26.15;;
4414;SDS011;2220;42.670;23.398;2024-02-23T07:37:36;28.92;;;15.63;;
4414;SDS011;2220;42.670;23.398;2024-02-23T07:40:02;33.10;;;16.25;;
4414;SDS011;2220;42.670;23.398;2024-02-23T07:42:31;29.58;;;13.95;;
4414;SDS011;2220;42.670;23.398;2024-02-23T07:44:57;31.05;;;13.90;;
4414;SDS011;2220;42.670;23.398;2024-02-23T07:47:23;30.63;;;13.88;;
4414;SDS011;2220;42.670;23.398;2024-02-23T07:49:49;31.77;;;13.88;;
4414;SDS011;2220;42.670;23.398;2024-02-23T07:52:14;21.25;;;12.30;;
4414;SDS011;2220;42.670;23.398;2024-02-23T07:54:40;31.63;;;14.25;;
4414;SDS011;2220;42.670;23.398;2024-02-23T07:57:05;26.63;;;11.18;;
4414;SDS011;2220;42.670;23.398;2024-02-23T07:59:30;20.15;;;8.50;;
4414;SDS011;2220;42.670;23.398;2024-02-23T08:01:56;18.30;;;9.68;;
4414;SDS011;2220;42.670;23.398;2024-02-23T08:04:22;19.42;;;9.80;;
4414;SDS011;2220;42.670;23.398;2024-02-23T08:06:47;14.93;;;10.23;;
4414;SDS011;2220;42.670;23.398;2024-02-23T08:09:13;14.65;;;8.13;;
4414;SDS011;2220;42.670;23.398;2024-02-23T08:11:39;13.90;;;6.05;;
4414;SDS011;2220;42.670;23.398;2024-02-23T08:14:04;14.18;;;7.95;;
4414;SDS011;2220;42.670;23.398;2024-02-23T08:16:30;48.17;;;23.75;;
4414;SDS011;2220;42.670;23.398;2024-02-23T08:18:55;17.25;;;8.80;;
4414;SDS011;2220;42.670;23.398;2024-02-23T08:21:20;20.42;;;8.98;;
4414;SDS011;2220;42.670;23.398;2024-02-23T08:23:46;23.10;;;9.18;;
4414;SDS011;2220;42.670;23.398;2024-02-23T08:26:11;15.02;;;9.13;;
4414;SDS011;2220;42.670;23.398;2024-02-23T08:28:37;19.13;;;8.60;;
4414;SDS011;2220;42.670;23.398;2024-02-23T08:31:02;16.30;;;8.93;;
4414;SDS011;2220;42.670;23.398;2024-02-23T08:33:28;12.02;;;7.28;;
4414;SDS011;2220;42.670;23.398;2024-02-23T08:35:53;18.00;;;10.30;;
4414;SDS011;2220;42.670;23.398;2024-02-23T08:38:19;15.90;;;10.15;;
4414;SDS011;2220;42.670;23.398;2024-02-23T08:40:45;38.90;;;18.45;;
4414;SDS011;2220;42.670;23.398;2024-02-23T08:43:10;14.25;;;8.07;;
4414;SDS011;2220;42.670;23.398;2024-02-23T08:45:36;14.38;;;8.85;;
4414;SDS011;2220;42.670;23.398;2024-02-23T08:48:01;19.25;;;11.02;;
4414;SDS011;2220;42.670;23.398;2024-02-23T08:50:28;18.52;;;9.57;;
4414;SDS011;2220;42.670;23.398;2024-02-23T08:52:54;20.20;;;9.95;;
4414;SDS011;2220;42.670;23.398;2024-02-23T08:55:19;14.88;;;8.13;;
4414;SDS011;2220;42.670;23.398;2024-02-23T08:57:46;19.73;;;9.98;;
4414;SDS011;2220;42.670;23.398;2024-02-23T09:00:12;11.90;;;7.43;;
4414;SDS011;2220;42.670;23.398;2024-02-23T09:02:37;15.82;;;10.10;;
4414;SDS011;2220;42.670;23.398;2024-02-23T09:05:03;16.20;;;8.20;;
4414;SDS011;2220;42.670;23.398;2024-02-23T09:07:29;10.15;;;7.18;;
4414;SDS011;2220;42.670;23.398;2024-02-23T09:09:55;13.05;;;8.35;;
4414;SDS011;2220;42.670;23.398;2024-02-23T09:12:21;11.50;;;7.28;;
4414;SDS011;2220;42.670;23.398;2024-02-23T09:14:47;13.32;;;8.07;;
4414;SDS011;2220;42.670;23.398;2024-02-23T09:17:12;10.88;;;7.20;;
4414;SDS011;2220;42.670;23.398;2024-02-23T09:19:38;13.18;;;8.02;;
4414;SDS011;2220;42.670;23.398;2024-02-23T09:22:04;12.00;;;6.82;;
4414;SDS011;2220;42.670;23.398;2024-02-23T09:24:29;13.05;;;7.70;;
4414;SDS011;2220;42.670;23.398;2024-02-23T09:26:55;12.73;;;6.88;;
4414;SDS011;2220;42.670;23.398;2024-02-23T09:29:20;14.32;;;6.88;;
4414;SDS011;2220;42.670;23.398;2024-02-23T09:31:46;13.05;;;6.68;;
4414;SDS011;2220;42.670;23.398;2024-02-23T09:34:12;11.98;;;6.90;;
4414;SDS011;2220;42.670;23.398;2024-02-23T09:36:39;10.68;;;5.85;;
4414;SDS011;2220;42.670;23.398;2024-02-23T09:39:04;7.30;;;6.03;;
4414;SDS011;2220;42.670;23.398;2024-02-23T09:41:30;11.32;;;6.18;;
4414;SDS011;2220;42.670;23.398;2024-02-23T09:43:58;9.60;;;6.38;;
4414;SDS011;2220;42.670;23.398;2024-02-23T09:46:25;9.10;;;5.88;;
4414;SDS011;2220;42.670;23.398;2024-02-23T09:48:51;7.63;;;5.85;;
4414;SDS011;2220;42.670;23.398;2024-02-23T09:51:17;10.13;;;4.32;;
4414;SDS011;2220;42.670;23.398;2024-02-23T09:53:43;10.27;;;4.78;;
4414;SDS011;2220;42.670;23.398;2024-02-23T09:56:09;5.53;;;4.80;;
4414;SDS011;2220;42.670;23.398;2024-02-23T09:58:39;4.60;;;3.80;;
4414;SDS011;2220;42.670;23.398;2024-02-23T10:01:06;4.55;;;3.85;;
4414;SDS011;2220;42.670;23.398;2024-02-23T10:03:32;5.30;;;4.60;;
4414;SDS011;2220;42.670;23.398;2024-02-23T10:05:57;7.95;;;4.45;;
4414;SDS011;2220;42.670;23.398;2024-02-23T10:08:23;4.07;;;3.67;;
4414;SDS011;2220;42.670;23.398;2024-02-23T10:10:48;5.35;;;4.03;;
4414;SDS011;2220;42.670;23.398;2024-02-23T10:13:19;6.20;;;3.42;;
4414;SDS011;2220;42.670;23.398;2024-02-23T10:15:49;7.00;;;3.45;;
4414;SDS011;2220;42.670;23.398;2024-02-23T10:18:17;4.82;;;3.40;;
4414;SDS011;2220;42.670;23.398;2024-02-23T10:20:43;6.97;;;3.60;;
4414;SDS011;2220;42.670;23.398;2024-02-23T10:23:09;4.28;;;3.88;;
4414;SDS011;2220;42.670;23.398;2024-02-23T10:25:35;7.75;;;4.25;;
4414;SDS011;2220;42.670;23.398;2024-02-23T10:28:01;4.82;;;3.72;;
4414;SDS011;2220;42.670;23.398;2024-02-23T10:30:27;3.33;;;3.03;;
4414;SDS011;2220;42.670;23.398;2024-02-23T10:32:54;4.13;;;2.72;;
4414;SDS011;2220;42.670;23.398;2024-02-23T10:35:21;2.50;;;2.30;;
4414;SDS011;2220;42.670;23.398;2024-02-23T10:37:50;3.20;;;2.88;;
4414;SDS011;2220;42.670;23.398;2024-02-23T10:40:17;4.05;;;2.80;;
4414;SDS011;2220;42.670;23.398;2024-02-23T10:42:44;2.78;;;2.53;;
4414;SDS011;2220;42.670;23.398;2024-02-23T10:45:16;4.38;;;3.58;;
4414;SDS011;2220;42.670;23.398;2024-02-23T10:47:42;2.80;;;2.40;;
4414;SDS011;2220;42.670;23.398;2024-02-23T10:50:08;3.83;;;3.35;;
4414;SDS011;2220;42.670;23.398;2024-02-23T10:52:35;3.47;;;2.50;;
4414;SDS011;2220;42.670;23.398;2024-02-23T10:55:01;4.00;;;3.03;;
4414;SDS011;2220;42.670;23.398;2024-02-23T10:57:29;5.47;;;2.78;;
4414;SDS011;2220;42.670;23.398;2024-02-23T10:59:59;7.60;;;4.88;;
4414;SDS011;2220;42.670;23.398;2024-02-23T11:02:25;5.35;;;2.75;;
4414;SDS011;2220;42.670;23.398;2024-02-23T11:04:54;3.20;;;2.90;;
4414;SDS011;2220;42.670;23.398;2024-02-23T11:07:22;4.22;;;3.42;;
4414;SDS011;2220;42.670;23.398;2024-02-23T11:10:08;4.57;;;2.65;;
4414;SDS011;2220;42.670;23.398;2024-02-23T11:12:34;2.75;;;2.53;;
4414;SDS011;2220;42.670;23.398;2024-02-23T11:15:00;6.28;;;2.97;;
4414;SDS011;2220;42.670;23.398;2024-02-23T11:17:26;6.60;;;2.78;;
4414;SDS011;2220;42.670;23.398;2024-02-23T11:19:54;3.83;;;2.30;;
4414;SDS011;2220;42.670;23.398;2024-02-23T11:22:24;5.18;;;2.33;;
4414;SDS011;2220;42.670;23.398;2024-02-23T11:27:29;3.67;;;2.55;;
4414;SDS011;2220;42.670;23.398;2024-02-23T11:29:59;3.30;;;2.45;;
4414;SDS011;2220;42.670;23.398;2024-02-23T11:32:36;4.60;;;3.05;;
4414;SDS011;2220;42.670;23.398;2024-02-23T11:35:12;6.72;;;4.43;;
4414;SDS011;2220;42.670;23.398;2024-02-23T11:40:10;7.20;;;2.92;;
4414;SDS011;2220;42.670;23.398;2024-02-23T11:42:37;7.15;;;3.67;;
4414;SDS011;2220;42.670;23.398;2024-02-23T11:45:04;8.57;;;2.47;;
4414;SDS011;2220;42.670;23.398;2024-02-23T11:47:30;4.38;;;2.47;;
4414;SDS011;2220;42.670;23.398;2024-02-23T11:49:56;7.10;;;2.78;;
4414;SDS011;2220;42.670;23.398;2024-02-23T11:52:21;7.10;;;2.63;;
4414;SDS011;2220;42.670;23.398;2024-02-23T11:54:47;8.20;;;5.40;;
4414;SDS011;2220;42.670;23.398;2024-02-23T11:57:12;16.00;;;10.07;;
4414;SDS011;2220;42.670;23.398;2024-02-23T11:59:39;9.77;;;3.78;;
4414;SDS011;2220;42.670;23.398;2024-02-23T12:02:06;12.23;;;3.92;;
4414;SDS011;2220;42.670;23.398;2024-02-23T12:04:32;5.65;;;2.17;;
4414;SDS011;2220;42.670;23.398;2024-02-23T12:06:58;6.28;;;2.63;;
4414;SDS011;2220;42.670;23.398;2024-02-23T12:09:24;6.25;;;4.05;;
4414;SDS011;2220;42.670;23.398;2024-02-23T12:11:50;4.43;;;2.58;;
4414;SDS011;2220;42.670;23.398;2024-02-23T12:14:15;8.43;;;4.40;;
4414;SDS011;2220;42.670;23.398;2024-02-23T12:16:41;6.85;;;3.13;;
4414;SDS011;2220;42.670;23.398;2024-02-23T12:19:07;16.10;;;4.95;;
4414;SDS011;2220;42.670;23.398;2024-02-23T12:21:34;5.07;;;2.03;;
4414;SDS011;2220;42.670;23.398;2024-02-23T12:23:59;3.67;;;1.98;;
4414;SDS011;2220;42.670;23.398;2024-02-23T12:26:25;13.93;;;6.60;;
4414;SDS011;2220;42.670;23.398;2024-02-23T12:28:50;3.33;;;2.42;;
4414;SDS011;2220;42.670;23.398;2024-02-23T12:31:15;2.95;;;2.65;;
4414;SDS011;2220;42.670;23.398;2024-02-23T12:33:48;3.47;;;1.77;;
4414;SDS011;2220;42.670;23.398;2024-02-23T12:36:13;4.22;;;2.30;;
4414;SDS011;2220;42.670;23.398;2024-02-23T12:38:40;3.78;;;1.60;;
4414;SDS011;2220;42.670;23.398;2024-02-23T12:41:05;5.57;;;2.72;;
4414;SDS011;2220;42.670;23.398;2024-02-23T12:43:31;3.83;;;2.00;;
4414;SDS011;2220;42.670;23.398;2024-02-23T12:45:57;1.70;;;1.48;;
4414;SDS011;2220;42.670;23.398;2024-02-23T12:48:22;2.55;;;2.35;;
4414;SDS011;2220;42.670;23.398;2024-02-23T12:50:48;3.10;;;1.83;;
4414;SDS011;2220;42.670;23.398;2024-02-23T12:56:17;4.72;;;1.92;;
4414;SDS011;2220;42.670;23.398;2024-02-23T12:58:43;3.72;;;1.73;;
4414;SDS011;2220;42.670;23.398;2024-02-23T13:01:09;2.53;;;2.00;;
4414;SDS011;2220;42.670;23.398;2024-02-23T13:03:35;1.90;;;1.80;;
4414;SDS011;2220;42.670;23.398;2024-02-23T13:06:03;10.65;;;1.77;;
4414;SDS011;2220;42.670;23.398;2024-02-23T13:08:29;2.10;;;1.90;;
4414;SDS011;2220;42.670;23.398;2024-02-23T13:10:56;4.53;;;1.83;;
4414;SDS011;2220;42.670;23.398;2024-02-23T13:13:22;3.20;;;2.10;;
4414;SDS011;2220;42.670;23.398;2024-02-23T13:15:50;2.03;;;1.60;;
4414;SDS011;2220;42.670;23.398;2024-02-23T13:18:17;2.05;;;1.60;;
4414;SDS011;2220;42.670;23.398;2024-02-23T13:20:42;6.63;;;2.00;;
4414;SDS011;2220;42.670;23.398;2024-02-23T13:23:08;2.67;;;1.90;;
4414;SDS011;2220;42.670;23.398;2024-02-23T13:25:35;1.98;;;1.83;;
4414;SDS011;2220;42.670;23.398;2024-02-23T13:28:01;1.63;;;1.50;;
4414;SDS011;2220;42.670;23.398;2024-02-23T13:30:27;2.67;;;1.85;;
4414;SDS011;2220;42.670;23.398;2024-02-23T13:32:53;3.05;;;1.50;;
4414;SDS011;2220;42.670;23.398;2024-02-23T13:35:18;3.97;;;2.47;;
4414;SDS011;2220;42.670;23.398;2024-02-23T13:37:44;1.95;;;1.15;;
4414;SDS011;2220;42.670;23.398;2024-02-23T13:40:10;3.28;;;1.35;;
4414;SDS011;2220;42.670;23.398;2024-02-23T13:42:36;1.25;;;1.10;;
4414;SDS011;2220;42.670;23.398;2024-02-23T13:45:04;7.30;;;3.95;;
4414;SDS011;2220;42.670;23.398;2024-02-23T13:47:30;12.50;;;7.47;;
4414;SDS011;2220;42.670;23.398;2024-02-23T13:49:56;2.97;;;1.70;;
4414;SDS011;2220;42.670;23.398;2024-02-23T13:52:21;3.05;;;1.70;;
4414;SDS011;2220;42.670;23.398;2024-02-23T13:54:47;13.10;;;5.82;;
4414;SDS011;2220;42.670;23.398;2024-02-23T13:57:12;6.60;;;2.58;;
4414;SDS011;2220;42.670;23.398;2024-02-23T13:59:37;3.75;;;1.30;;
4414;SDS011;2220;42.670;23.398;2024-02-23T14:02:03;1.58;;;1.48;;
4414;SDS011;2220;42.670;23.398;2024-02-23T14:04:28;2.92;;;2.28;;
4414;SDS011;2220;42.670;23.398;2024-02-23T14:06:54;7.00;;;2.80;;
4414;SDS011;2220;42.670;23.398;2024-02-23T14:09:19;2.70;;;1.77;;
4414;SDS011;2220;42.670;23.398;2024-02-23T14:11:45;2.75;;;2.03;;
4414;SDS011;2220;42.670;23.398;2024-02-23T14:14:10;4.55;;;2.40;;
4414;SDS011;2220;42.670;23.398;2024-02-23T14:16:36;2.75;;;1.80;;
4414;SDS011;2220;42.670;23.398;2024-02-23T14:19:02;7.57;;;2.70;;
4414;SDS011;2220;42.670;23.398;2024-02-23T14:21:27;18.70;;;6.47;;
4414;SDS011;2220;42.670;23.398;2024-02-23T14:23:52;13.00;;;6.22;;
4414;SDS011;2220;42.670;23.398;2024-02-23T14:26:18;12.73;;;2.58;;
4414;SDS011;2220;42.670;23.398;2024-02-23T14:28:43;7.20;;;2.78;;
4414;SDS011;2220;42.670;23.398;2024-02-23T14:31:08;5.72;;;2.22;;
4414;SDS011;2220;42.670;23.398;2024-02-23T14:33:34;8.82;;;2.28;;
4414;SDS011;2220;42.670;23.398;2024-02-23T14:35:59;6.70;;;2.45;;
4414;SDS011;2220;42.670;23.398;2024-02-23T14:38:25;6.68;;;2.50;;
4414;SDS011;2220;42.670;23.398;2024-02-23T14:40:50;7.05;;;2.00;;
4414;SDS011;2220;42.670;23.398;2024-02-23T14:43:16;2.80;;;1.80;;
4414;SDS011;2220;42.670;23.398;2024-02-23T14:45:41;6.63;;;2.90;;